FMEP/ZSE METAR and TAF weather

Enter ICAO airport designator
Station Type Date Time Source
FMEP METAR 2021/03/02 13:30 UTC NOAA

FMEP 021330Z AUTO 13018KT CAVOK 29/22 Q1010 BECMG 06010KT


Station Type Date Time Source
FMEP Decoded METAR 2021/03/02 13:30 UTC NOAA

Saint-Pierre, Reunion (FMEP) 21-20S 055-29E 53M
Mar 02, 2021 - 08:30 AM EST / 2021.03.02 1330 UTC
Wind: from the SE (130 degrees) at 21 MPH (18 KT):0
Visibility: greater than 7 mile(s):0
Temperature: 84 F (29 C)
Dew Point: 71 F (22 C)
Relative Humidity: 65%
Pressure (altimeter): 29.83 in. Hg (1010 hPa)
ob: FMEP 021330Z AUTO 13018KT CAVOK 29/22 Q1010 BECMG 06010KT
cycle: 13

Station Type Date Time Source
FMEP TAF 2020/08/08 06:00 UTC NOAA

TAF FMEP 080500Z 0806/0815 27010KT 9999 FEW030

Example: see airport list